logo
Search for airport 
image banner adimage banner adimage banner ad
image banner ad

UG26 - Kutaisi West Airport

Located in Kutaisi, Georgia

ICAO - , IATA -

Data provided by Airmate  

General information

Coordinates: N42°14'55" E42°37'29"
Elevation is 384 feet MSL.
Magnetic variation is 7° East
View others Airports in Imereti

Operational data

Special qualification required
Current time UTC:
Current local time:
Weather at : UGKO - Kutaisi/Kopitnari ( 14 km )
METAR: UGKO 231730Z 26007KT CAVOK 25/22 Q1008 NOSIG
TAF: TAF UGKO 231700Z 2318/2418 27007KT 9999 SCT050 TX27/2411Z TN20/2402Z TEMPO 2318/2322 CAVOK PROB40 TEMPO 2319/2402 3000 TSRA SCT015CB BKN040 TEMPO 2407/2418 26017KT 5000 SHRA BKN020CB
View NOTAMs / SUP AIP / TFR affecting this airport [VIEW]
Communications frequencies: [VIEW]

Runways:

Airport contact information

Address: Kutaisi Georgia

Satellite view of UG26